Ride Results

Toogoolawah (22-06-2019)
Ride distance: 80.0 km

Outcomes - Toogoolawah (22-06-2019)
Division No. of Entries Retired / DNE Completed Withdrawn Ineligible V/O Percentage Completed
HW 7 - 2 1 - 4 28.57%
MW 23 - 16 1 - 6 69.57%
LW 26 - 21 - - 5 80.77%
JN 16 - 14 1 - 1 87.50%
Totals 72 - 53 3 - 16 73.61%
Results - Toogoolawah (22-06-2019)
No. Rider Horse Place Time Leg Speeds Total
Km/Hr
H/R bpm
Heavyweight
59 Michael Chapman Shanelli-Park Peekatu 1 (BC) 6:18:00 12.4, 12.9 12.70 29, 47, 50 (Avg:48)
46 Gary Surch Gabri-El El Malek 2 8:01:00 10.7, 9.3 9.98 42, 44, 42 (Avg:43)
88 Mark Nimon Abbeywood Cochise Lame L2 0:00:00 16.5, 13.8 - 36, 42, 50 (Avg:46)
84 Natashja Burton Lindall Flashpoint Lame L1 0:00:00 12.7 - 34, 43 (Avg:43)
69 Peter Field Rkayn Xuberant Lame L1 0:00:00 13.1 - 35, 55 (Avg:55)
50 Bill Stevenson Jack Lame L1 0:00:00 12.6 - 30, 48 (Avg:48)
74 Di Walduck Jumpin' Jack Flash W/D after vetting L1 0:00:00 - - 35, 52 (Avg:52)
Middleweight
39 Kelsey Irvine Karma 1 (BC) 4:40:00 17.1, 17.1 17.14 32, 48, 47 (Avg:47)
66 Cathy Lanser Beau 2 5:16:00 16.8, 13.7 15.19 28, 40, 46 (Avg:43)
19 Samantha Yates Splendacrest Zafire 3 5:19:00 16.2, 14.0 15.05 28, 44, 47 (Avg:45)
31 David Cleland Emilina 4 5:38:00 15.3, 13.1 14.20 32, 46, 38 (Avg:42)
51 Jo Barsby Dumaresq Platinum 5 5:56:00 13.0, 13.9 13.48 32, 39, 42 (Avg:40)
86 Danielle Kendall Sh'Harriet te 6 6:08:00 13.5, 12.5 13.04 28, 44, 40 (Avg:42)
35 Peter Holmes Matrix Maker 7 6:10:00 12.7, 13.1 12.97 36, 42, 46 (Avg:44)
56 Ellie Kreicbergs-Prenzler Kalkadoon Lucifer 7 6:10:00 13.7, 12.2 12.97 36, 43, 59 (Avg:51)
9 David Urquhart Bremervale Mackenzie 9 6:15:00 12.6, 12.9 12.80 32, 46, 51 (Avg:48)
37 John Dugan Performance Park Illusion 10 6:16:00 13.6, 11.9 12.77 32, 48, 44 (Avg:46)
14 Ken Moir Dash 11 6:18:00 12.4, 12.9 12.70 36, 44, 46 (Avg:45)
15 Alex Moir Picnic Park Onyx 11 6:18:00 12.4, 12.9 12.70 40, 46, 54 (Avg:50)
40 Brook Sample Brookleigh MIa 13 6:33:00 12.5, 11.8 12.21 34, 44, 51 (Avg:47)
7 Lexi Morton Shakira BDA 14 6:34:00 12.9, 11.5 12.18 43, 44, 52 (Avg:48)
71 Bec Miller El'Maas Ginger Kisses 15 7:15:00 12.8, 9.6 11.03 34, 46, 52 (Avg:49)
3 Jenna Newton Cameo Pinque 16 8:24:00 8.9, 10.2 9.52 32, 43, 46 (Avg:44)
76 Virginia Barber Rodborough Samira Lame L2 0:00:00 11.7, 11.2 - 30, 50, 44 (Avg:47)
63 Cora Becker Shamazan Ibn Hammal Lame L2 0:00:00 15.7, 12.6 - 36, 38, 39 (Avg:38)
73 Stacey Dodd Cameo Ontario Lame L2 0:00:00 12.4, 10.4 - 36, 44, 42 (Avg:43)
1 Ondy Laws-King Heathfield's Prince Lame L2 0:00:00 16.9, 13.7 - 29, 43, 50 (Avg:46)
77 Akhmed Pshunov Aloha Delos Lame L2 0:00:00 16.7, 17.5 - 34, 50, 49 (Avg:49)
70 Jess Dakin Porcelain Doll Lame L1 0:00:00 12.8 - 30, 46 (Avg:46)
75 Tia Koning-Cabenalevu Shanti W/D after vetting L1 0:00:00 - - 33, 47 (Avg:47)
Lightweight
61 Shelley Chapman Tora Sardeeka 1 (BC) 5:39:00 14.3, 13.9 14.16 27, 38, 38 (Avg:38)
60 Maeve Paten Picnic Park Smart Return 1 5:39:00 14.3, 13.9 14.16 29, 44, 43 (Avg:43)
54 Shannon Hill Burren-dah Narla 3 6:02:00 15.2, 11.7 13.26 35, 40, 41 (Avg:40)
5 Kathy Drew Warrawee A'Bandom 4 6:05:00 14.2, 12.2 13.15 32, 44, 43 (Avg:43)
21 Renee Kelso PVE Remington 5 6:08:00 13.0, 13.0 13.04 32, 42, 45 (Avg:43)
17 Alexandra Toft Roger That te 5 6:08:00 13.4, 12.6 13.04 30, 40, 42 (Avg:41)
48 Sharn Brooker Hirstglen Texas Rose 7 6:15:00 12.3, 13.3 12.80 36, 30, 52 (Avg:41)
10 Ute Jordan Count Shanahan 8 6:17:00 12.7, 12.6 12.73 36, 44, 45 (Avg:44)
13 Belinda Redhead Ayla Emira 8 6:17:00 12.7, 12.6 12.73 37, 45, 46 (Avg:45)
45 Floor Braunius Brookleigh Matisse 10 6:33:00 12.5, 11.8 12.21 39, 53, 60 (Avg:56)
43 Renae Chapman Gheerulla Tula 10 6:33:00 12.5, 11.8 12.21 38, 46, 45 (Avg:45)
38 Jill Colwell Katushka 10 6:33:00 12.2, 12.1 12.21 30, 44, 50 (Avg:47)
41 Lieke Ros Gheerulla Shamsa 10 6:33:00 12.5, 11.8 12.21 39, 48, 48 (Avg:48)
62 Tamara Gibson Dunbar Magnolia 14 6:51:00 12.9, 10.6 11.68 30, 37, 41 (Avg:39)
58 Ashleigh Grassick Dunbar Caspian 14 6:51:00 12.9, 10.6 11.68 33, 48, 44 (Avg:46)
80 Essy Mountford Berwick The Phoenix 16 6:55:00 12.2, 10.9 11.57 33, 42, 48 (Avg:45)
82 Clare Fleming Flemingo Bombastic 17 7:03:00 11.3, 11.3 11.35 34, 45, 51 (Avg:48)
52 Virginia Dale Moondarra El Diron 18 7:04:00 12.4, 10.3 11.32 42, 44, 46 (Avg:45)
83 Naomi Lee River Oak Nullabor 18 7:04:00 11.3, 11.3 11.32 46, 48, 49 (Avg:48)
53 Sarah Love Burren-dah Gladiator 20 7:08:00 11.6, 10.8 11.21 32, 44, 52 (Avg:48)
34 Brooke Marshall Kalkadoon Ricochet 20 7:08:00 11.6, 10.8 11.21 30, 38, 44 (Avg:41)
78 Karalee Anderson Churinga Spider Gold Lame L2 0:00:00 12.2, 10.9 - 35, 40, 45 (Avg:42)
67 Adriana Sardoni Maraahn E'Jaaz Lame L2 0:00:00 11.7, 10.9 - 30, 46, 51 (Avg:48)
49 Samantha Brooker Hirstglen Zeus Lame L1 0:00:00 12.3 - 33, 48 (Avg:48)
32 Pip Ireland Gheerulla Aspen Lame L1 0:00:00 11.5 - 42, 42 (Avg:42)
85 Brittney McInnes Masree AP Lame L1 0:00:00 10.1 - 31, 42, 44 (Avg:43)
Junior
4 Georgia Drew La Battist Oliver Twist 1 6:05:00 14.2, 12.2 13.15 37, 44, 44 (Avg:44)
68 Talyn Nix Homeleigh Mountain Khalid's Komet 1 6:05:00 14.1, 12.2 13.15 32, 43, 44 (Avg:43)
72 Eadie McWilliam Beaudacious te 3 6:08:00 13.4, 12.6 13.04 28, 36, 40 (Avg:38)
18 Charlize Renner Envious te 3 (BC) 6:08:00 13.5, 12.5 13.04 26, 35, 40 (Avg:37)
16 Louis Ryan Twilight te 3 6:08:00 13.5, 12.5 13.04 30, 38, 43 (Avg:40)
2 Ben Hoey Little Beauty 6 6:15:00 12.2, 13.3 12.80 29, 52, 57 (Avg:54)
64 Mognild Eerkens Littlebanks Sundown 7 6:16:00 13.2, 12.3 12.77 41, 49, 53 (Avg:51)
36 Sam Long De-Sharvarll El Dakar 7 6:16:00 13.6, 11.9 12.77 42, 40, 44 (Avg:42)
44 Noah Hoogland Magic Glenn Cadbury 9 6:33:00 12.5, 11.8 12.21 29, 40, 42 (Avg:41)
6 Georgia Morton Ramalea Magnum 10 6:34:00 12.9, 11.5 12.18 36, 48, 44 (Avg:46)
55 Charlotte Williamson Shardell Jaxon 10 6:34:00 12.9, 11.5 12.18 40, 46, 48 (Avg:47)
87 Ellie-Rose Bowden Abbeywood Bright Spark 12 6:57:00 11.7, 11.2 11.51 34, 42, 42 (Avg:42)
81 Miranda Hodges Flemingo Papilion 13 7:03:00 11.3, 11.3 11.35 34, 48, 48 (Avg:48)
27 Joey Long Merlin GG 14 7:05:00 11.7, 10.9 11.29 40, 41, 46 (Avg:43)
26 Evie Whitton Teddy Lame L2 0:00:00 11.7, 10.9 - 30, 38, 42 (Avg:40)
29 Adi Imray Glenewan Suprise W/D after vetting L1 0:00:00 - - 38, 48 (Avg:48)